KFWA/FWA METAR and TAF weather

Enter ICAO airport designator
Station Type Date Time Source
KFWA METAR 2019/04/22 19:54 UTC NOAA

KFWA 221954Z 18011KT 10SM FEW090 BKN150 BKN230 23/11 A3009 RMK AO2 SLP189 VIRGA NW T02280106


Station Type Date Time Source
KFWA Decoded METAR 2019/04/22 19:54 UTC NOAA

FORT WAYNE INTERNATIONAL, IN, United States (KFWA) 41-00N 85-12W 248M
Apr 22, 2019 - 03:54 PM EDT / 2019.04.22 1954 UTC
Wind: from the S (180 degrees) at 13 MPH (11 KT):0
Visibility: 10 mile(s):0
Sky conditions: mostly cloudy
Temperature: 73.0 F (22.8 C)
Dew Point: 51.1 F (10.6 C)
Relative Humidity: 46%
Pressure (altimeter): 30.09 in. Hg (1018 hPa)
ob: KFWA 221954Z 18011KT 10SM FEW090 BKN150 BKN230 23/11 A3009 RMK AO2 SLP189 VIRGA NW T02280106
cycle: 20

Station Type Date Time Source
KFWA TAF 2019/04/22 18:36 UTC NOAA

TAF KFWA 221734Z 2218/2318 18011G21KT P6SM SCT150
FM230000 17010KT P6SM SCT250
FM231100 22012KT P6SM BKN030
FM231500 27013G24KT P6SM VCSH BKN022

Example: see airport list